Time;durP1;ratioP1;P1;durP2;ratioP2;P2;SDS_P1;SDS_P2;PMS_P1;PMS_P2;Temp;Humidity;BMP_temperature;BMP_pressure;BME280_temperature;BME280_humidity;BME280_pressure;Samples;Min_cycle;Max_cycle;Signal;HPM_P1;HPM_P2
2022/04/07 00:01:28;;;;;;;13.87;2.37;;;8.90;79.40;;;;;;5035846;28;20033;-71
2022/04/07 00:03:54;;;;;;;10.13;1.25;;;8.90;79.30;;;;;;5030619;28;20429;-71
2022/04/07 00:06:19;;;;;;;8.90;1.60;;;8.90;79.40;;;;;;5061889;28;20033;-71
2022/04/07 00:08:45;;;;;;;13.10;2.30;;;8.80;79.70;;;;;;5042786;28;20127;-71
2022/04/07 00:11:11;;;;;;;11.27;2.10;;;8.80;79.90;;;;;;5040585;28;20039;-71
2022/04/07 00:13:37;;;;;;;18.10;2.67;;;8.80;80.10;;;;;;5041981;28;20064;-71
2022/04/07 00:16:03;;;;;;;16.03;2.63;;;8.80;80.30;;;;;;5056886;28;20081;-71
2022/04/07 00:18:29;;;;;;;17.37;2.43;;;8.80;80.50;;;;;;5058343;28;20298;-71
2022/04/07 00:20:56;;;;;;;18.17;2.70;;;8.80;80.70;;;;;;5039151;28;20405;-71
2022/04/07 00:23:23;;;;;;;21.75;2.90;;;8.80;80.60;;;;;;5035631;28;20048;-71
2022/04/07 00:25:49;;;;;;;22.40;3.33;;;8.80;80.80;;;;;;5032372;28;20097;-71
2022/04/07 00:28:15;;;;;;;19.58;2.85;;;8.80;80.70;;;;;;5052728;28;20054;-71
2022/04/07 00:30:43;;;;;;;23.88;3.75;;;8.80;80.80;;;;;;5052851;28;20466;-71
2022/04/07 00:33:09;;;;;;;18.13;2.80;;;8.80;80.60;;;;;;5052456;28;20072;-71
2022/04/07 00:35:36;;;;;;;21.00;3.42;;;8.90;80.40;;;;;;5033477;28;20052;-71
2022/04/07 00:38:02;;;;;;;18.35;3.28;;;8.90;80.30;;;;;;5045087;28;20489;-71
2022/04/07 00:40:28;;;;;;;19.13;4.13;;;8.90;80.20;;;;;;5045156;28;20075;-71
2022/04/07 00:42:54;;;;;;;23.13;3.87;;;8.90;80.60;;;;;;5063159;28;20508;-71
2022/04/07 00:45:21;;;;;;;21.10;3.43;;;8.90;80.70;;;;;;5044811;28;20036;-71
2022/04/07 00:47:49;;;;;;;22.95;3.80;;;8.90;81.00;;;;;;5053415;28;20036;-71
2022/04/07 00:50:17;;;;;;;26.25;4.75;;;8.80;81.70;;;;;;5045208;28;20512;-71
2022/04/07 00:52:57;;;;;;;27.05;4.03;;;8.70;82.60;;;;;;5043610;28;20052;-71
2022/04/07 00:55:24;;;;;;;24.65;3.95;;;8.70;83.00;;;;;;5044377;28;20036;-71
2022/04/07 00:57:50;;;;;;;27.30;4.65;;;8.60;83.80;;;;;;5068421;28;20052;-71
2022/04/07 01:00:16;;;;;;;27.08;4.55;;;8.50;84.00;;;;;;5065121;28;20114;-71
2022/04/07 01:02:42;;;;;;;29.27;3.83;;;8.50;84.00;;;;;;5044947;28;20040;-71
2022/04/07 01:05:09;;;;;;;22.97;4.00;;;8.50;83.90;;;;;;5057556;28;20327;-71
2022/04/07 01:07:39;;;;;;;21.83;3.88;;;8.50;84.00;;;;;;5044244;28;20076;-71
2022/04/07 01:10:08;;;;;;;31.65;4.90;;;8.50;84.20;;;;;;5063760;28;20481;-71
2022/04/07 01:12:34;;;;;;;23.38;4.40;;;8.50;84.20;;;;;;5066172;28;20044;-71
2022/04/07 01:15:02;;;;;;;25.77;3.80;;;8.50;84.30;;;;;;5055339;28;20038;-71
2022/04/07 01:17:28;;;;;;;26.00;5.13;;;8.60;83.90;;;;;;5069018;28;20104;-71
2022/04/07 01:19:55;;;;;;;28.55;3.80;;;8.60;83.90;;;;;;5057904;28;20032;-71
2022/04/07 01:22:21;;;;;;;31.08;5.60;;;8.60;83.70;;;;;;5040247;28;20047;-71
2022/04/07 01:24:47;;;;;;;22.60;4.95;;;8.60;83.40;;;;;;5065391;28;20419;-71
2022/04/07 01:27:15;;;;;;;23.90;4.03;;;8.60;83.10;;;;;;5056968;28;20040;-71
2022/04/07 01:29:41;;;;;;;31.20;4.63;;;8.60;82.90;;;;;;5054867;28;20666;-71
2022/04/07 01:32:28;;;;;;;29.38;5.05;;;8.60;82.90;;;;;;5041766;28;20048;-71
2022/04/07 01:34:53;;;;;;;31.55;4.57;;;8.60;82.60;;;;;;5056604;28;20493;-71
2022/04/07 01:37:19;;;;;;;25.87;3.97;;;8.60;82.40;;;;;;5034852;28;20056;-71
2022/04/07 01:39:48;;;;;;;25.07;4.10;;;8.60;82.10;;;;;;5047863;28;20044;-71
2022/04/07 01:42:14;;;;;;;27.40;3.83;;;8.60;81.90;;;;;;5065979;28;20071;-71
2022/04/07 01:44:46;;;;;;;26.27;4.22;;;8.60;81.60;;;;;;5069257;28;20052;-71
2022/04/07 01:47:14;;;;;;;26.27;4.88;;;8.70;81.30;;;;;;5054566;28;20496;-71
2022/04/07 01:49:44;;;;;;;30.35;4.30;;;8.70;81.20;;;;;;5045008;28;20051;-71
2022/04/07 01:52:12;;;;;;;26.90;5.15;;;8.60;81.20;;;;;;5059957;28;20040;-71
2022/04/07 01:54:39;;;;;;;31.30;5.10;;;8.60;81.40;;;;;;5064731;28;20040;-71
2022/04/07 01:57:05;;;;;;;31.98;5.35;;;8.60;81.30;;;;;;5070334;28;20092;-71
2022/04/07 01:59:31;;;;;;;26.20;4.93;;;8.60;81.20;;;;;;5038985;28;20516;-71
2022/04/07 02:01:56;;;;;;;31.37;4.60;;;8.70;81.40;;;;;;5070035;28;20093;-71
2022/04/07 02:04:23;;;;;;;21.90;4.10;;;8.60;81.70;;;;;;5011702;28;20161;-71
2022/04/07 02:06:48;;;;;;;26.92;4.10;;;8.60;81.50;;;;;;5063836;28;20052;-71
2022/04/07 02:09:14;;;;;;;25.37;4.10;;;8.60;81.60;;;;;;5058229;28;20042;-71
2022/04/07 02:11:40;;;;;;;33.97;5.13;;;8.50;81.80;;;;;;5045873;28;20036;-71
2022/04/07 02:14:06;;;;;;;24.80;4.20;;;8.50;82.10;;;;;;5045493;28;20117;-71
2022/04/07 02:16:32;;;;;;;28.27;4.50;;;8.60;82.10;;;;;;5034387;28;20036;-71
2022/04/07 02:18:58;;;;;;;30.20;4.90;;;8.60;82.10;;;;;;5040645;28;20039;-71
2022/04/07 02:21:23;;;;;;;28.10;4.00;;;8.60;82.20;;;;;;5061464;28;20028;-71
2022/04/07 02:23:49;;;;;;;25.23;4.90;;;8.50;82.00;;;;;;5034670;28;20500;-71
2022/04/07 02:26:16;;;;;;;23.67;4.67;;;8.60;81.90;;;;;;5055162;28;20059;-71
2022/04/07 02:28:43;;;;;;;22.95;4.28;;;8.60;81.80;;;;;;5037923;28;20056;-71
2022/04/07 02:31:09;;;;;;;22.33;4.18;;;8.60;81.50;;;;;;5034203;28;20043;-71
2022/04/07 02:33:36;;;;;;;17.92;3.28;;;8.60;81.40;;;;;;5059289;28;20151;-71
2022/04/07 02:36:03;;;;;;;26.17;3.85;;;8.60;81.30;;;;;;5041052;28;20036;-71
2022/04/07 02:38:28;;;;;;;35.65;4.60;;;8.70;81.10;;;;;;5055204;28;20052;-71
2022/04/07 02:40:54;;;;;;;25.67;4.87;;;8.70;80.90;;;;;;5040095;28;20451;-71
2022/04/07 02:43:20;;;;;;;26.83;4.17;;;8.70;80.50;;;;;;5044169;28;20047;-71
2022/04/07 02:45:46;;;;;;;20.70;3.30;;;8.70;80.60;;;;;;5042540;28;20084;-71
2022/04/07 02:48:11;;;;;;;25.80;3.63;;;8.70;80.50;;;;;;5049768;28;20365;-71
2022/04/07 02:50:37;;;;;;;25.60;4.10;;;8.70;80.30;;;;;;5035402;28;20175;-71
2022/04/07 02:53:03;;;;;;;22.20;4.03;;;8.70;80.10;;;;;;5047488;28;20120;-71
2022/04/07 02:55:28;;;;;;;20.60;3.37;;;8.70;80.20;;;;;;5061881;28;20519;-72
2022/04/07 02:57:58;;;;;;;27.70;4.40;;;8.80;80.10;;;;;;5064332;28;20504;-72
2022/04/07 03:00:24;;;;;;;26.52;4.20;;;8.70;80.00;;;;;;5037636;28;20051;-72
2022/04/07 03:02:49;;;;;;;17.70;3.37;;;8.80;80.00;;;;;;5039368;28;20036;-71
2022/04/07 03:05:15;;;;;;;27.10;4.80;;;8.80;80.00;;;;;;5068529;28;20040;-71
2022/04/07 03:07:42;;;;;;;25.08;4.75;;;8.80;80.10;;;;;;5053535;28;20097;-71
2022/04/07 03:10:08;;;;;;;31.98;4.70;;;8.80;79.80;;;;;;5063428;28;20040;-71
2022/04/07 03:12:34;;;;;;;28.42;4.70;;;8.90;79.80;;;;;;5035633;28;20063;-71
2022/04/07 03:15:00;;;;;;;24.55;4.15;;;8.90;79.90;;;;;;5033895;28;20128;-71
2022/04/07 03:17:26;;;;;;;22.25;3.63;;;8.90;79.60;;;;;;5057903;28;20085;-71
2022/04/07 03:19:52;;;;;;;25.73;4.03;;;8.90;79.30;;;;;;5038259;28;20462;-72
2022/04/07 03:22:19;;;;;;;20.83;3.27;;;8.90;78.80;;;;;;5058061;28;20099;-72
2022/04/07 03:24:45;;;;;;;25.52;3.90;;;8.90;78.30;;;;;;5050737;28;20048;-72
2022/04/07 03:27:11;;;;;;;26.23;4.40;;;8.90;78.00;;;;;;5050409;28;20459;-72
2022/04/07 03:29:37;;;;;;;22.73;4.23;;;8.90;77.90;;;;;;5045673;28;20051;-72
2022/04/07 03:32:04;;;;;;;23.27;5.07;;;8.90;78.00;;;;;;5042761;28;20705;-72
2022/04/07 03:34:30;;;;;;;29.23;5.28;;;8.90;77.80;;;;;;5044869;28;20037;-71
2022/04/07 03:36:56;;;;;;;30.97;6.50;;;8.90;77.70;;;;;;5036720;28;20143;-71
2022/04/07 03:39:22;;;;;;;29.03;5.07;;;8.90;77.90;;;;;;5025243;28;20348;-71
2022/04/07 03:41:48;;;;;;;26.25;5.18;;;8.90;78.10;;;;;;5051004;28;20052;-71
2022/04/07 03:44:13;;;;;;;34.03;5.37;;;8.80;78.10;;;;;;5035631;28;20439;-71
2022/04/07 03:46:39;;;;;;;32.13;5.13;;;8.90;78.10;;;;;;5061937;28;20492;-71
2022/04/07 03:49:05;;;;;;;31.57;4.87;;;8.80;78.40;;;;;;5010200;28;20043;-71
2022/04/07 03:51:31;;;;;;;36.33;6.45;;;8.80;78.60;;;;;;5045388;28;20445;-71
2022/04/07 03:53:57;;;;;;;37.83;6.10;;;8.80;79.00;;;;;;5048496;28;20094;-71
2022/04/07 03:56:23;;;;;;;31.33;5.47;;;8.80;79.50;;;;;;5049758;28;20556;-71
2022/04/07 03:58:49;;;;;;;37.37;6.30;;;8.70;79.90;;;;;;5037613;28;20050;-71
2022/04/07 04:01:14;;;;;;;32.87;5.30;;;8.70;80.20;;;;;;5046315;28;20498;-71
2022/04/07 04:03:40;;;;;;;39.40;7.37;;;8.70;80.70;;;;;;5058978;28;20126;-71
2022/04/07 04:06:06;;;;;;;39.03;5.90;;;8.60;81.00;;;;;;5051662;28;20051;-71
2022/04/07 04:08:31;;;;;;;39.50;7.23;;;8.60;81.20;;;;;;5056598;28;20098;-71
2022/04/07 04:10:57;;;;;;;37.77;5.97;;;8.60;81.50;;;;;;5040226;28;20040;-72
2022/04/07 04:13:23;;;;;;;42.87;7.03;;;8.60;81.70;;;;;;5050491;28;20489;-71
2022/04/07 04:15:48;;;;;;;38.47;7.20;;;8.50;82.10;;;;;;5051230;28;20033;-71
2022/04/07 04:18:14;;;;;;;39.93;6.47;;;8.50;82.00;;;;;;5036470;28;20036;-71
2022/04/07 04:20:40;;;;;;;40.20;7.30;;;8.40;82.20;;;;;;5065630;28;20029;-72
2022/04/07 04:23:06;;;;;;;42.87;5.93;;;8.50;82.00;;;;;;5047196;28;20496;-72
2022/04/07 04:25:31;;;;;;;31.03;5.90;;;8.40;82.10;;;;;;5055974;28;20123;-71
2022/04/07 04:27:57;;;;;;;41.83;6.43;;;8.40;82.20;;;;;;5034264;28;20578;-72
2022/04/07 04:30:23;;;;;;;34.33;6.50;;;8.50;82.20;;;;;;5034356;28;20102;-72
2022/04/07 04:32:49;;;;;;;41.50;8.07;;;8.50;82.30;;;;;;5012912;28;20048;-72
2022/04/07 04:35:14;;;;;;;37.00;6.20;;;8.50;82.30;;;;;;5049251;28;20044;-72
2022/04/07 04:37:40;;;;;;;32.13;6.07;;;8.50;82.40;;;;;;5041188;28;20042;-72
2022/04/07 04:40:06;;;;;;;42.07;6.57;;;8.50;82.50;;;;;;5067400;28;20411;-72
2022/04/07 04:42:32;;;;;;;36.95;6.55;;;8.50;83.10;;;;;;5044639;28;20553;-72
2022/04/07 04:44:58;;;;;;;40.57;6.57;;;8.40;83.40;;;;;;5022430;28;20040;-72
2022/04/07 04:47:23;;;;;;;44.27;7.27;;;8.40;83.70;;;;;;5038272;28;20613;-72
2022/04/07 04:49:49;;;;;;;31.33;6.13;;;8.40;83.90;;;;;;5052157;28;20094;-72
2022/04/07 04:52:15;;;;;;;30.73;5.33;;;8.40;84.00;;;;;;5063230;28;20074;-72
2022/04/07 04:54:41;;;;;;;18.97;3.07;;;8.40;84.20;;;;;;5070703;28;20118;-73
2022/04/07 04:57:07;;;;;;;12.40;2.10;;;8.30;81.90;;;;;;5065509;28;20063;-73
2022/04/07 04:59:33;;;;;;;19.58;3.05;;;8.00;79.40;;;;;;5041195;28;20052;-73
2022/04/07 05:01:59;;;;;;;19.73;3.30;;;7.60;81.40;;;;;;5061338;28;20048;-73
2022/04/07 05:04:25;;;;;;;20.77;4.47;;;7.20;82.30;;;;;;5044049;28;20113;-73
2022/04/07 05:06:50;;;;;;;15.17;2.37;;;7.00;81.50;;;;;;5051343;28;20052;-73
2022/04/07 05:09:16;;;;;;;14.27;2.13;;;6.90;81.40;;;;;;5040124;28;20047;-73
2022/04/07 05:11:42;;;;;;;16.27;1.77;;;6.80;81.60;;;;;;5034644;28;20048;-74
2022/04/07 05:14:07;;;;;;;15.37;1.73;;;6.60;81.10;;;;;;5065349;28;20060;-73
2022/04/07 05:16:33;;;;;;;4.97;0.80;;;6.40;81.90;;;;;;5024396;28;20036;-73
2022/04/07 05:18:59;;;;;;;5.77;1.13;;;6.10;81.50;;;;;;5043512;28;20332;-74
2022/04/07 05:21:24;;;;;;;10.60;1.40;;;5.90;81.40;;;;;;5047288;28;20040;-74
2022/04/07 05:23:50;;;;;;;10.97;1.03;;;5.80;82.30;;;;;;5040230;28;20037;-74
2022/04/07 05:26:16;;;;;;;9.63;0.90;;;5.60;83.10;;;;;;5034438;28;20052;-74
2022/04/07 05:28:42;;;;;;;9.37;1.03;;;5.50;82.50;;;;;;5050975;28;20162;-74
2022/04/07 05:31:09;;;;;;;7.95;1.20;;;5.40;83.10;;;;;;5038234;28;20042;-73
2022/04/07 05:33:35;;;;;;;10.23;1.00;;;5.40;83.50;;;;;;5052470;28;20043;-73
2022/04/07 05:36:00;;;;;;;10.70;1.93;;;5.30;83.80;;;;;;5030352;28;20040;-73
2022/04/07 05:38:26;;;;;;;13.27;1.43;;;5.30;83.80;;;;;;5028703;28;20301;-74
2022/04/07 05:40:52;;;;;;;7.83;0.93;;;5.30;83.90;;;;;;5026592;28;20120;-74
2022/04/07 05:43:18;;;;;;;10.13;1.20;;;5.20;84.20;;;;;;5058869;28;20040;-75
2022/04/07 05:45:45;;;;;;;10.33;0.70;;;5.10;84.30;;;;;;5054030;28;20047;-74
2022/04/07 05:48:12;;;;;;;10.90;1.00;;;5.00;84.40;;;;;;5035021;28;20071;-74
2022/04/07 05:50:38;;;;;;;4.90;0.75;;;5.00;85.00;;;;;;5046308;28;20400;-74
2022/04/07 05:53:06;;;;;;;5.75;0.70;;;4.90;85.40;;;;;;5047727;28;20041;-74
2022/04/07 05:55:32;;;;;;;9.75;1.33;;;4.90;85.70;;;;;;5051259;28;20036;-74
2022/04/07 05:58:02;;;;;;;6.07;0.70;;;4.90;85.80;;;;;;5023576;28;20650;-74
2022/04/07 06:00:28;;;;;;;8.02;0.90;;;4.90;86.00;;;;;;5057568;28;20870;-73
2022/04/07 06:02:53;;;;;;;10.57;1.37;;;4.90;85.90;;;;;;5020687;28;20048;-74
2022/04/07 06:05:19;;;;;;;7.93;0.80;;;4.90;85.80;;;;;;5021369;28;20493;-73
2022/04/07 06:07:46;;;;;;;13.03;0.90;;;4.90;86.00;;;;;;5049787;28;20443;-73
2022/04/07 06:10:12;;;;;;;9.02;1.25;;;5.00;86.00;;;;;;5064126;28;20126;-73
2022/04/07 06:12:42;;;;;;;6.00;0.75;;;5.00;85.90;;;;;;5049982;28;20040;-73
2022/04/07 06:15:11;;;;;;;9.68;0.93;;;5.00;85.80;;;;;;5061937;28;20192;-73
2022/04/07 06:17:44;;;;;;;6.15;1.00;;;5.00;85.70;;;;;;5061701;28;20047;-72
2022/04/07 06:20:11;;;;;;;6.45;0.73;;;5.10;85.60;;;;;;5035121;28;20516;-72
2022/04/07 06:22:38;;;;;;;4.60;0.98;;;5.10;85.60;;;;;;5058222;28;20040;-72
2022/04/07 06:25:04;;;;;;;5.38;1.02;;;5.10;85.50;;;;;;5048639;28;20109;-72
2022/04/07 06:27:34;;;;;;;7.60;0.70;;;5.10;85.50;;;;;;5047929;28;20090;-72
2022/04/07 06:30:00;;;;;;;7.72;0.80;;;5.20;85.40;;;;;;5061765;28;20339;-72
2022/04/07 06:32:26;;;;;;;5.83;0.70;;;5.30;85.30;;;;;;5034131;28;20048;-72
2022/04/07 06:34:51;;;;;;;11.87;0.97;;;5.30;85.30;;;;;;5054618;28;20124;-72
2022/04/07 06:37:17;;;;;;;6.73;0.70;;;5.40;85.10;;;;;;5027232;28;20075;-72
2022/04/07 06:39:43;;;;;;;8.40;1.10;;;5.40;85.00;;;;;;5007796;28;20098;-72
2022/04/07 06:42:08;;;;;;;8.23;0.93;;;5.50;84.90;;;;;;5035278;28;20040;-72
2022/04/07 06:44:34;;;;;;;10.93;1.03;;;5.50;84.60;;;;;;5031712;28;20045;-72
2022/04/07 06:46:59;;;;;;;6.13;0.80;;;5.50;84.40;;;;;;5066923;28;20384;-72
2022/04/07 06:49:25;;;;;;;6.97;1.27;;;5.50;84.30;;;;;;5064608;28;20047;-72
2022/04/07 06:51:51;;;;;;;10.17;1.03;;;5.50;84.00;;;;;;5066618;28;20055;-72
2022/04/07 06:54:16;;;;;;;9.17;1.57;;;5.60;83.90;;;;;;5017733;28;20166;-72
2022/04/07 06:56:42;;;;;;;6.50;0.80;;;5.60;83.80;;;;;;5032282;28;20287;-72
2022/04/07 06:59:08;;;;;;;7.00;0.83;;;5.60;83.50;;;;;;5063889;28;20044;-73
2022/04/07 07:01:34;;;;;;;7.20;0.80;;;5.60;83.30;;;;;;5035882;28;20033;-73
2022/04/07 07:03:59;;;;;;;9.10;1.30;;;5.70;82.90;;;;;;5048127;28;20046;-72
2022/04/07 07:06:25;;;;;;;9.37;1.23;;;5.70;82.30;;;;;;5047113;28;20288;-72
2022/04/07 07:08:51;;;;;;;3.03;0.80;;;5.80;82.00;;;;;;5030856;28;20626;-72
2022/04/07 07:11:16;;;;;;;9.10;0.90;;;5.80;82.00;;;;;;5032552;28;20119;-72
2022/04/07 07:13:42;;;;;;;8.30;1.13;;;5.80;82.00;;;;;;5038840;28;20045;-72
2022/04/07 07:16:08;;;;;;;6.37;0.83;;;5.90;81.50;;;;;;5014020;28;20032;-72
2022/04/07 07:18:34;;;;;;;11.57;1.40;;;5.90;81.40;;;;;;5019758;28;20103;-72
2022/04/07 07:20:59;;;;;;;5.10;0.80;;;5.90;80.80;;;;;;5006877;28;20037;-72
2022/04/07 07:23:25;;;;;;;5.93;1.17;;;5.90;80.50;;;;;;5042229;28;20037;-72
2022/04/07 07:25:51;;;;;;;8.77;1.03;;;5.90;80.40;;;;;;5034705;28;20428;-72
2022/04/07 07:28:16;;;;;;;13.77;1.47;;;5.90;80.10;;;;;;5012882;28;20044;-72
2022/04/07 07:30:42;;;;;;;8.80;1.23;;;5.80;79.80;;;;;;5040100;28;20593;-72
2022/04/07 07:33:08;;;;;;;10.03;1.60;;;5.90;80.40;;;;;;5009438;28;20040;-72
2022/04/07 07:35:34;;;;;;;12.27;1.17;;;6.10;80.50;;;;;;5022947;28;20041;-72
2022/04/07 07:38:03;;;;;;;9.80;1.30;;;6.30;79.60;;;;;;5040351;28;20089;-72
2022/04/07 07:40:31;;;;;;;6.50;1.20;;;6.50;80.10;;;;;;5033266;28;20040;-72
2022/04/07 07:42:59;;;;;;;7.60;0.95;;;6.60;79.70;;;;;;5053450;28;20036;-72
2022/04/07 07:45:30;;;;;;;8.57;0.70;;;6.70;79.50;;;;;;5035801;28;20666;-72
2022/04/07 07:47:56;;;;;;;10.05;1.02;;;6.90;79.10;;;;;;5035729;28;20052;-72
2022/04/07 07:50:22;;;;;;;7.97;1.17;;;7.00;78.20;;;;;;5035372;28;20052;-72
2022/04/07 07:52:48;;;;;;;5.30;0.57;;;7.10;77.80;;;;;;5037088;28;20517;-72
2022/04/07 07:55:14;;;;;;;10.85;1.02;;;7.20;78.20;;;;;;5035421;28;20303;-72
2022/04/07 07:57:40;;;;;;;5.37;0.70;;;7.20;76.20;;;;;;5033347;28;20075;-72
2022/04/07 08:00:08;;;;;;;9.27;0.90;;;7.30;76.90;;;;;;5036284;28;20076;-72
2022/04/07 08:02:34;;;;;;;9.23;0.90;;;7.60;76.40;;;;;;5065049;28;20044;-72
2022/04/07 08:05:01;;;;;;;5.15;0.95;;;7.80;76.40;;;;;;5041657;28;20556;-72
2022/04/07 08:07:27;;;;;;;6.60;0.80;;;8.10;75.10;;;;;;5056002;28;20428;-72
2022/04/07 08:09:55;;;;;;;9.18;0.88;;;8.30;73.90;;;;;;5027600;28;20048;-72
2022/04/07 08:12:21;;;;;;;8.23;0.90;;;8.50;73.80;;;;;;5033990;28;20519;-72
2022/04/07 08:14:46;;;;;;;11.20;1.87;;;8.60;73.90;;;;;;5035607;28;20045;-72
2022/04/07 08:17:12;;;;;;;8.33;1.10;;;8.40;72.60;;;;;;5036528;28;20379;-72
2022/04/07 08:19:40;;;;;;;7.33;0.80;;;8.40;73.60;;;;;;5053051;28;20041;-72
2022/04/07 08:22:06;;;;;;;4.97;0.57;;;8.40;73.50;;;;;;5010341;28;20457;-72
2022/04/07 08:24:31;;;;;;;5.07;0.73;;;8.40;74.30;;;;;;5035567;28;20052;-72
2022/04/07 08:26:57;;;;;;;6.73;0.70;;;8.40;74.40;;;;;;5062885;28;20698;-72
2022/04/07 08:29:23;;;;;;;4.87;0.73;;;8.40;74.40;;;;;;5033344;28;20404;-72
2022/04/07 08:31:51;;;;;;;9.23;1.10;;;8.50;75.00;;;;;;5051655;28;20044;-72
2022/04/07 08:34:20;;;;;;;11.75;1.45;;;8.50;74.90;;;;;;5043920;28;20106;-72
2022/04/07 08:36:47;;;;;;;8.93;1.05;;;8.60;74.70;;;;;;5031946;28;20890;-72
2022/04/07 08:39:12;;;;;;;6.47;0.95;;;8.60;74.00;;;;;;5048195;28;20048;-72
2022/04/07 08:41:40;;;;;;;8.20;1.00;;;8.50;73.50;;;;;;5050123;28;20040;-72
2022/04/07 08:44:06;;;;;;;13.68;1.05;;;8.60;74.20;;;;;;5039700;28;20048;-72
2022/04/07 08:46:32;;;;;;;9.40;1.15;;;8.70;73.90;;;;;;5041692;28;20041;-72
2022/04/07 08:49:01;;;;;;;12.10;1.13;;;8.70;73.40;;;;;;5047816;28;20052;-72
2022/04/07 08:51:28;;;;;;;10.90;1.52;;;8.80;72.20;;;;;;5031243;28;20048;-72
2022/04/07 08:53:55;;;;;;;10.70;1.33;;;8.90;72.60;;;;;;5048669;28;20586;-72
2022/04/07 08:56:23;;;;;;;8.90;1.05;;;9.00;72.90;;;;;;5052263;28;20136;-72
2022/04/07 08:58:49;;;;;;;15.60;2.00;;;9.10;72.10;;;;;;5034731;28;20501;-72
2022/04/07 09:01:15;;;;;;;9.82;1.63;;;9.20;71.50;;;;;;5051484;28;20040;-72
2022/04/07 09:03:42;;;;;;;11.80;1.47;;;9.30;70.80;;;;;;5042874;28;20354;-72
2022/04/07 09:06:07;;;;;;;12.15;1.80;;;9.60;71.70;;;;;;5042959;28;20083;-72
2022/04/07 09:08:38;;;;;;;9.30;1.33;;;9.80;71.10;;;;;;5022852;28;20469;-72
2022/04/07 09:11:06;;;;;;;12.13;1.60;;;9.70;70.00;;;;;;5037593;28;20075;-72
2022/04/07 09:13:39;;;;;;;10.90;1.70;;;9.50;70.60;;;;;;5039000;28;20036;-72
2022/04/07 09:16:13;;;;;;;8.38;1.50;;;9.30;71.40;;;;;;5034776;28;20098;-72
2022/04/07 09:18:47;;;;;;;13.10;2.13;;;9.20;70.70;;;;;;5051905;28;20566;-72
2022/04/07 09:21:22;;;;;;;14.02;1.92;;;9.10;70.40;;;;;;5035452;28;20148;-72
2022/04/07 09:23:47;;;;;;;13.98;1.95;;;9.10;70.80;;;;;;5039196;28;20059;-72
2022/04/07 09:26:14;;;;;;;16.43;2.17;;;9.00;71.80;;;;;;5036556;28;20079;-72
2022/04/07 09:28:41;;;;;;;11.50;2.22;;;8.90;71.10;;;;;;5051291;28;20538;-72
2022/04/07 09:31:15;;;;;;;14.70;1.90;;;8.90;71.90;;;;;;5045132;28;20051;-72
2022/04/07 09:33:41;;;;;;;9.23;1.80;;;8.90;72.00;;;;;;5041247;28;20546;-72
2022/04/07 09:36:11;;;;;;;13.02;1.50;;;9.10;70.50;;;;;;5034181;28;20054;-72
2022/04/07 09:38:38;;;;;;;10.23;1.65;;;9.20;67.60;;;;;;5054299;28;20131;-72
2022/04/07 09:41:05;;;;;;;9.98;2.17;;;9.40;66.10;;;;;;5036469;28;20205;-71
2022/04/07 09:43:42;;;;;;;9.73;1.67;;;9.40;66.00;;;;;;5054437;28;20090;-71
2022/04/07 09:46:10;;;;;;;8.98;1.35;;;9.50;65.50;;;;;;5053261;28;20071;-72
2022/04/07 09:48:36;;;;;;;9.32;1.48;;;9.50;65.50;;;;;;5053082;28;20041;-72
2022/04/07 09:51:08;;;;;;;13.25;1.80;;;9.30;68.10;;;;;;5053209;28;20511;-72
2022/04/07 09:53:39;;;;;;;11.63;2.20;;;8.80;70.00;;;;;;5051191;28;20055;-73
2022/04/07 09:56:06;;;;;;;15.68;1.92;;;8.30;71.90;;;;;;5050675;28;20040;-73
2022/04/07 09:58:33;;;;;;;10.23;2.25;;;8.00;73.80;;;;;;5036323;28;20056;-73
2022/04/07 10:01:04;;;;;;;15.10;2.10;;;7.90;75.90;;;;;;5038981;28;20047;-73
2022/04/07 10:03:33;;;;;;;12.63;2.75;;;8.00;76.40;;;;;;5058964;28;20048;-73
2022/04/07 10:05:59;;;;;;;13.80;1.85;;;8.10;73.30;;;;;;5056237;28;20048;-73
2022/04/07 10:08:26;;;;;;;16.77;2.47;;;8.20;73.40;;;;;;5052600;28;20090;-72
2022/04/07 10:10:53;;;;;;;14.75;2.65;;;8.30;72.20;;;;;;5053109;28;20127;-73
2022/04/07 10:13:20;;;;;;;16.00;2.58;;;8.30;72.00;;;;;;5052212;28;20040;-73
2022/04/07 10:15:47;;;;;;;18.08;2.40;;;8.30;71.40;;;;;;5053699;28;20394;-73
2022/04/07 10:18:33;;;;;;;15.45;1.88;;;8.10;72.00;;;;;;5034363;28;20048;-72
2022/04/07 10:21:00;;;;;;;10.82;1.92;;;8.00;73.00;;;;;;5035150;28;20041;-72
2022/04/07 10:24:00;;;;;;;13.93;1.63;;;8.10;72.60;;;;;;5030881;28;20037;-72
2022/04/07 10:26:27;;;;;;;14.05;2.72;;;8.20;71.90;;;;;;5034687;28;20331;-73
2022/04/07 10:28:56;;;;;;;16.00;2.83;;;8.40;71.80;;;;;;5054189;28;20041;-73
2022/04/07 10:31:22;;;;;;;14.35;2.15;;;8.50;70.80;;;;;;5050495;28;20558;-73
2022/04/07 10:33:49;;;;;;;9.48;1.98;;;8.50;70.40;;;;;;5039113;28;20047;-73
2022/04/07 10:36:20;;;;;;;16.05;1.85;;;8.40;70.00;;;;;;5060549;28;20254;-73
2022/04/07 10:38:51;;;;;;;15.43;2.60;;;8.40;71.50;;;;;;5053078;28;20511;-72
2022/04/07 10:41:53;;;;;;;18.38;2.40;;;8.30;71.00;;;;;;5051319;28;20076;-72
2022/04/07 10:44:21;;;;;;;14.45;2.30;;;8.30;70.20;;;;;;4975429;28;20622;-72
2022/04/07 10:46:47;;;;;;;17.00;2.25;;;8.40;70.10;;;;;;5037807;28;20059;-72
2022/04/07 10:49:24;;;;;;;16.20;2.20;;;8.50;71.20;;;;;;5055321;28;20105;-74
2022/04/07 10:51:55;;;;;;;18.52;3.50;;;8.60;71.40;;;;;;5053469;28;20056;-72
2022/04/07 10:54:21;;;;;;;17.13;2.58;;;8.80;72.20;;;;;;5062966;28;20044;-72
2022/04/07 10:56:52;;;;;;;13.68;2.53;;;9.00;70.20;;;;;;5056591;28;20046;-72
2022/04/07 10:59:27;;;;;;;19.70;2.70;;;9.20;69.30;;;;;;5035780;28;20044;-72
2022/04/07 11:02:12;;;;;;;;;;;9.20;68.70;;;;;;5044054;28;20045;-72
2022/04/07 11:05:00;;;;;;;10.88;1.75;;;9.00;66.90;;;;;;5042116;28;20006;-72
2022/04/07 11:07:26;;;;;;;15.88;3.40;;;9.00;68.50;;;;;;5039864;28;20248;-72
2022/04/07 11:10:05;;;;;;;13.20;2.60;;;9.00;66.70;;;;;;5020035;28;20037;-72
2022/04/07 11:12:39;;;;;;;14.23;2.50;;;9.20;68.40;;;;;;5045233;28;20088;-72
2022/04/07 11:15:04;;;;;;;13.13;2.75;;;9.30;67.70;;;;;;5053860;28;20097;-72
2022/04/07 11:17:47;;;;;;;12.13;1.90;;;9.50;68.60;;;;;;5054874;28;20048;-72
2022/04/07 11:20:24;;;;;;;12.30;2.20;;;9.60;66.80;;;;;;5059691;28;20088;-72
2022/04/07 11:22:54;;;;;;;13.43;2.35;;;9.60;66.40;;;;;;5032891;28;20527;-72
2022/04/07 11:25:40;;;;;;;11.23;2.00;;;9.50;66.90;;;;;;5032972;28;20080;-72
2022/04/07 11:28:19;;;;;;;13.15;2.00;;;9.60;65.80;;;;;;5050953;28;20493;-72
2022/04/07 11:30:49;;;;;;;15.15;2.40;;;9.70;64.30;;;;;;5035042;28;20059;-72
2022/04/07 11:33:25;;;;;;;13.02;2.17;;;9.80;66.40;;;;;;5059391;28;20078;-72
2022/04/07 11:36:00;;;;;;;15.40;2.00;;;9.90;66.30;;;;;;5055785;28;20059;-72
2022/04/07 11:38:34;;;;;;;14.48;2.53;;;9.90;65.30;;;;;;5037388;28;20075;-72
2022/04/07 11:41:07;;;;;;;13.52;2.63;;;10.00;64.80;;;;;;5034454;28;20045;-72
2022/04/07 11:43:36;;;;;;;10.88;2.00;;;10.30;65.00;;;;;;5060334;28;20124;-72
2022/04/07 11:46:02;;;;;;;14.27;2.40;;;10.50;64.70;;;;;;5052776;28;20049;-72
2022/04/07 11:48:36;;;;;;;17.20;2.53;;;10.50;64.30;;;;;;5052301;28;20048;-72
2022/04/07 11:51:13;;;;;;;17.00;2.67;;;10.40;63.60;;;;;;5053666;28;20052;-72
2022/04/07 11:53:40;;;;;;;11.95;3.30;;;10.60;65.60;;;;;;5052291;28;20040;-71
2022/04/07 11:56:16;;;;;;;12.02;1.70;;;10.60;61.30;;;;;;5054591;28;20055;-71
2022/04/07 11:58:49;;;;;;;11.27;1.63;;;10.20;63.30;;;;;;5051215;28;20165;-72
2022/04/07 12:01:15;;;;;;;11.45;1.58;;;9.60;66.20;;;;;;5054991;28;20038;-72
2022/04/07 12:03:41;;;;;;;11.30;1.60;;;8.90;68.60;;;;;;5067700;28;20048;-72
2022/04/07 12:06:09;;;;;;;6.70;0.97;;;8.50;69.30;;;;;;5054750;28;20048;-73
2022/04/07 12:08:35;;;;;;;8.63;1.10;;;8.00;70.90;;;;;;5035353;28;20098;-73
2022/04/07 12:11:01;;;;;;;5.67;0.80;;;7.30;70.90;;;;;;5036525;28;20041;-73
2022/04/07 12:13:27;;;;;;;6.93;1.00;;;7.10;73.50;;;;;;5049667;28;20094;-73
2022/04/07 12:15:53;;;;;;;8.67;1.50;;;7.30;76.40;;;;;;5053806;28;20147;-72
2022/04/07 12:18:26;;;;;;;11.60;1.53;;;7.80;76.00;;;;;;5032680;28;20041;-72
2022/04/07 12:21:03;;;;;;;10.50;2.25;;;8.20;75.10;;;;;;5058833;28;20524;-72
2022/04/07 12:23:29;;;;;;;11.85;2.20;;;8.70;74.80;;;;;;5059477;28;20472;-72
2022/04/07 12:26:01;;;;;;;13.48;1.70;;;9.10;72.10;;;;;;5042376;28;20036;-72
2022/04/07 12:28:40;;;;;;;12.93;2.63;;;9.50;71.10;;;;;;5035295;28;20055;-72
2022/04/07 12:31:11;;;;;;;7.03;1.50;;;9.30;68.00;;;;;;5050067;28;20040;-72
2022/04/07 12:33:47;;;;;;;13.02;1.20;;;8.70;68.90;;;;;;5055165;28;20044;-73
2022/04/07 12:36:13;;;;;;;;;;;7.80;70.20;;;;;;5056705;28;20044;-72
2022/04/07 12:38:41;;;;;;;10.30;1.35;;;7.50;71.40;;;;;;5061535;28;19916;-72
2022/04/07 12:41:13;;;;;;;9.80;1.80;;;7.50;72.50;;;;;;5063790;28;20047;-72
2022/04/07 12:43:43;;;;;;;9.07;1.67;;;8.00;72.90;;;;;;5055736;28;20036;-72
2022/04/07 12:46:09;;;;;;;12.40;2.10;;;8.50;72.10;;;;;;5038327;28;20098;-72
2022/04/07 12:48:35;;;;;;;12.77;2.27;;;8.90;70.60;;;;;;5058743;28;20075;-72
2022/04/07 12:51:21;;;;;;;10.70;2.10;;;9.10;70.00;;;;;;5023685;28;20048;-72
2022/04/07 12:53:46;;;;;;;10.55;2.25;;;9.00;71.20;;;;;;5068458;28;20594;-72